Time;durP1;ratioP1;P1;durP2;ratioP2;P2;SDS_P1;SDS_P2;PMS_P1;PMS_P2;Temp;Humidity;BMP_temperature;BMP_pressure;BME280_temperature;BME280_humidity;BME280_pressure;Samples;Min_cycle;Max_cycle;Signal;HPM_P1;HPM_P2
2023/02/19 00:01:11;;;;;;;14.47;10.60;;;8.50;96.80;;;;;;6298695;28;20797;-68
2023/02/19 00:04:15;;;;;;;17.23;10.20;;;8.50;96.80;;;;;;6292739;28;20504;-69
2023/02/19 00:07:19;;;;;;;10.83;9.70;;;8.40;96.80;;;;;;6297267;28;20481;-69
2023/02/19 00:10:22;;;;;;;14.33;11.17;;;8.40;96.90;;;;;;6296758;28;20495;-68
2023/02/19 00:13:25;;;;;;;11.60;10.50;;;8.40;96.80;;;;;;6297574;28;20469;-69
2023/02/19 00:16:31;;;;;;;12.87;9.63;;;8.30;97.30;;;;;;6289760;28;20488;-69
2023/02/19 00:19:35;;;;;;;10.67;9.53;;;8.30;97.50;;;;;;6299097;28;20473;-68
2023/02/19 00:22:38;;;;;;;20.53;18.53;;;8.30;97.10;;;;;;6298981;28;20492;-69
2023/02/19 00:25:41;;;;;;;14.67;13.17;;;8.30;97.30;;;;;;6298962;28;20973;-69
2023/02/19 00:28:45;;;;;;;12.40;11.10;;;8.30;97.30;;;;;;6273846;28;20486;-69
2023/02/19 00:31:49;;;;;;;12.50;11.30;;;8.30;97.00;;;;;;6274218;28;20527;-67
2023/02/19 00:34:53;;;;;;;12.93;11.13;;;8.30;97.00;;;;;;6273778;28;20473;-68
2023/02/19 00:37:56;;;;;;;14.47;13.20;;;8.20;97.10;;;;;;6273908;28;20481;-68
2023/02/19 00:40:59;;;;;;;13.50;9.67;;;8.20;97.00;;;;;;6273511;28;20470;-68
2023/02/19 00:44:05;;;;;;;11.40;8.30;;;8.20;97.20;;;;;;6273347;28;20926;-68
2023/02/19 00:47:09;;;;;;;9.77;8.40;;;8.10;97.10;;;;;;6273301;28;20474;-68
2023/02/19 00:50:12;;;;;;;10.10;7.87;;;8.10;97.10;;;;;;6273141;28;21001;-68
2023/02/19 00:53:16;;;;;;;11.70;9.17;;;8.10;97.20;;;;;;6273753;28;20473;-68
2023/02/19 00:56:19;;;;;;;10.10;8.87;;;8.10;97.20;;;;;;6277819;28;20775;-68
2023/02/19 00:59:22;;;;;;;9.60;7.90;;;8.10;97.30;;;;;;6278047;28;20551;-68
2023/02/19 01:02:26;;;;;;;10.30;8.27;;;8.10;97.40;;;;;;6277801;28;20477;-68
2023/02/19 01:05:30;;;;;;;10.77;8.10;;;8.10;97.10;;;;;;6278185;28;20469;-68
2023/02/19 01:08:34;;;;;;;10.57;7.67;;;8.10;97.00;;;;;;6277955;28;20473;-67
2023/02/19 01:11:37;;;;;;;8.93;7.90;;;8.00;97.00;;;;;;6278214;28;20744;-68
2023/02/19 01:14:40;;;;;;;12.03;8.00;;;8.00;97.40;;;;;;6283073;28;20806;-68
2023/02/19 01:17:45;;;;;;;8.17;7.47;;;8.00;97.50;;;;;;6271244;28;20446;-68
2023/02/19 01:20:48;;;;;;;9.37;7.37;;;7.90;97.50;;;;;;6278839;28;20473;-69
2023/02/19 01:23:52;;;;;;;9.70;7.10;;;7.90;97.40;;;;;;6278018;28;20466;-69
2023/02/19 01:26:56;;;;;;;7.90;7.10;;;7.80;97.30;;;;;;6298236;28;20933;-69
2023/02/19 01:29:59;;;;;;;7.20;6.50;;;7.70;97.30;;;;;;6298955;28;20473;-68
2023/02/19 01:33:03;;;;;;;7.80;6.27;;;7.70;97.60;;;;;;6293330;28;20543;-68
2023/02/19 01:36:08;;;;;;;7.93;6.37;;;7.70;97.80;;;;;;6301472;28;20472;-68
2023/02/19 01:39:11;;;;;;;10.80;6.67;;;7.70;97.80;;;;;;6295829;28;20488;-67
2023/02/19 01:42:15;;;;;;;10.03;6.57;;;7.70;97.70;;;;;;6298397;28;20816;-69
2023/02/19 01:45:28;;;;;;;7.37;6.67;;;7.70;97.70;;;;;;6301636;28;20544;-68
2023/02/19 01:48:36;;;;;;;7.00;6.30;;;7.70;97.70;;;;;;6295659;28;20895;-67
2023/02/19 01:51:44;;;;;;;7.23;5.60;;;7.70;97.60;;;;;;6301433;28;20461;-69
2023/02/19 01:54:49;;;;;;;7.30;6.30;;;7.70;97.60;;;;;;6300929;28;20469;-68
2023/02/19 01:57:56;;;;;;;6.40;5.70;;;7.80;97.60;;;;;;6293281;28;20466;-69
2023/02/19 02:01:01;;;;;;;7.63;5.70;;;7.80;97.60;;;;;;6300780;28;20941;-68
2023/02/19 02:04:09;;;;;;;7.00;6.30;;;7.80;97.50;;;;;;6301130;28;21667;-69
2023/02/19 02:10:31;;;;;;;7.57;6.00;;;7.80;97.70;;;;;;6300713;28;20473;-68
2023/02/19 02:13:35;;;;;;;6.87;6.20;;;7.80;97.80;;;;;;6301189;28;20469;-68
2023/02/19 02:16:47;;;;;;;9.07;6.30;;;7.80;97.60;;;;;;6301335;28;20997;-68
2023/02/19 02:20:19;;;;;;;6.60;5.90;;;7.80;97.60;;;;;;6301457;28;20469;-69
2023/02/19 02:23:34;;;;;;;4.77;4.40;;;7.80;97.80;;;;;;6296601;28;20481;-69
2023/02/19 02:26:52;;;;;;;5.37;4.83;;;7.70;97.80;;;;;;6294010;28;20466;-69
2023/02/19 02:30:16;;;;;;;6.90;5.70;;;7.70;97.80;;;;;;6276316;28;20470;-68
2023/02/19 02:33:28;;;;;;;5.80;5.23;;;7.80;97.80;;;;;;6270759;28;20966;-69
2023/02/19 02:36:35;;;;;;;7.00;6.30;;;7.70;97.70;;;;;;6276025;28;20471;-69
2023/02/19 02:39:41;;;;;;;6.63;5.77;;;7.70;97.60;;;;;;6276319;28;20470;-68
2023/02/19 02:42:44;;;;;;;5.20;4.70;;;7.60;97.90;;;;;;6275587;28;20948;-68
2023/02/19 02:45:49;;;;;;;6.83;6.03;;;7.50;98.00;;;;;;6276065;28;20466;-69
2023/02/19 02:48:56;;;;;;;6.47;5.87;;;7.60;98.00;;;;;;6275589;28;20484;-68
2023/02/19 02:55:01;;;;;;;6.07;5.47;;;7.60;97.80;;;;;;6276057;28;20821;-69
2023/02/19 02:55:24;;;;;;;7.13;6.17;;;7.70;97.60;;;;;;6270497;28;20768;-68
2023/02/19 02:58:29;;;;;;;8.47;6.47;;;7.60;97.40;;;;;;6276053;28;20481;-68
2023/02/19 03:08:31;;;;;;;13.60;11.30;;;7.00;98.80;;;;;;6299162;28;20472;-68
2023/02/19 03:21:50;;;;;;;15.93;13.50;;;6.80;99.90;;;;;;6300031;28;20846;-68
2023/02/19 03:29:21;;;;;;;15.33;11.53;;;6.90;99.90;;;;;;6278609;28;20473;-67
2023/02/19 03:31:45;;;;;;;16.80;13.30;;;7.00;99.90;;;;;;6290419;28;20938;-68
2023/02/19 03:34:55;;;;;;;13.43;10.50;;;6.90;99.90;;;;;;6299980;28;20493;-68
2023/02/19 03:38:03;;;;;;;12.07;9.67;;;7.00;99.90;;;;;;6300013;28;20814;-69
2023/02/19 03:41:11;;;;;;;11.07;8.77;;;7.00;99.90;;;;;;6294984;28;21012;-68
2023/02/19 03:44:23;;;;;;;11.27;8.13;;;7.10;99.90;;;;;;6274645;28;20612;-68
2023/02/19 03:47:29;;;;;;;9.90;8.20;;;7.10;99.90;;;;;;6274197;28;20482;-69
2023/02/19 03:50:42;;;;;;;10.27;8.27;;;7.10;99.80;;;;;;6274533;28;20489;-68
2023/02/19 03:53:53;;;;;;;13.23;7.67;;;7.10;99.80;;;;;;6274318;28;20434;-69
2023/02/19 03:57:04;;;;;;;7.97;7.17;;;7.10;99.80;;;;;;6274786;28;20461;-68
2023/02/19 04:00:13;;;;;;;8.00;7.20;;;7.10;99.80;;;;;;6274248;28;20478;-69
2023/02/19 04:03:21;;;;;;;9.77;8.10;;;7.10;99.90;;;;;;6274151;28;20683;-69
2023/02/19 04:06:27;;;;;;;9.10;7.73;;;7.10;99.80;;;;;;6273758;28;21020;-69
2023/02/19 04:09:36;;;;;;;15.17;8.67;;;7.10;99.80;;;;;;6274250;28;20470;-68
2023/02/19 04:12:44;;;;;;;12.07;9.10;;;7.00;99.90;;;;;;6274234;28;20466;-69
2023/02/19 04:15:49;;;;;;;11.10;9.33;;;7.10;99.90;;;;;;6274449;28;20470;-68
2023/02/19 04:18:57;;;;;;;10.60;8.67;;;7.10;99.90;;;;;;6274071;28;20489;-68
2023/02/19 04:22:04;;;;;;;11.43;9.27;;;7.10;99.90;;;;;;6265918;28;20485;-68
2023/02/19 04:25:08;;;;;;;11.77;8.10;;;7.10;99.90;;;;;;6274271;28;20981;-68
2023/02/19 04:28:15;;;;;;;13.50;9.70;;;7.10;99.80;;;;;;6269673;28;20482;-69
2023/02/19 04:31:18;;;;;;;13.10;9.73;;;7.10;99.90;;;;;;6278838;28;20477;-70
2023/02/19 04:34:21;;;;;;;13.27;8.17;;;7.10;99.90;;;;;;6279192;28;20553;-69
2023/02/19 04:37:26;;;;;;;9.77;8.20;;;7.10;99.80;;;;;;6278882;28;20796;-69
2023/02/19 04:40:29;;;;;;;11.13;7.80;;;7.10;99.60;;;;;;6279059;28;20515;-69
2023/02/19 04:43:33;;;;;;;8.37;7.53;;;7.10;99.60;;;;;;6278873;28;20470;-69
2023/02/19 04:46:36;;;;;;;6.87;6.10;;;7.10;99.60;;;;;;6279195;28;20469;-69
2023/02/19 04:49:39;;;;;;;7.00;6.30;;;7.00;99.50;;;;;;6278088;28;20485;-68
2023/02/19 04:52:43;;;;;;;6.30;5.47;;;7.00;99.60;;;;;;6278558;28;20481;-69
2023/02/19 04:55:47;;;;;;;9.47;7.30;;;7.00;99.70;;;;;;6278663;28;20465;-69
2023/02/19 04:58:51;;;;;;;7.87;6.47;;;6.90;99.60;;;;;;6278565;28;20474;-68
2023/02/19 05:01:56;;;;;;;6.77;6.07;;;6.90;99.70;;;;;;6278182;28;20955;-69
2023/02/19 05:04:59;;;;;;;7.93;7.13;;;7.00;99.70;;;;;;6278118;28;20789;-69
2023/02/19 05:08:04;;;;;;;8.50;6.97;;;6.90;99.70;;;;;;6270155;28;20926;-68
2023/02/19 05:11:09;;;;;;;9.07;6.17;;;6.90;99.70;;;;;;6278156;28;20469;-69
2023/02/19 05:14:13;;;;;;;7.43;5.57;;;6.80;99.80;;;;;;6278278;28;20469;-69
2023/02/19 05:17:16;;;;;;;6.83;5.77;;;6.80;99.90;;;;;;6277874;28;20474;-69
2023/02/19 05:20:21;;;;;;;10.27;7.10;;;6.80;99.90;;;;;;6278143;28;20536;-69
2023/02/19 05:23:27;;;;;;;8.27;6.03;;;6.80;99.90;;;;;;6277812;28;20478;-69
2023/02/19 05:26:30;;;;;;;8.33;6.43;;;7.00;99.90;;;;;;6278236;28;20466;-69
2023/02/19 05:29:34;;;;;;;7.50;6.10;;;6.90;99.90;;;;;;6277686;28;20489;-69
2023/02/19 05:32:37;;;;;;;5.70;5.10;;;6.90;99.90;;;;;;6272941;28;20779;-69
2023/02/19 05:35:42;;;;;;;7.60;6.83;;;6.80;99.90;;;;;;6277199;28;20784;-68
2023/02/19 05:38:47;;;;;;;7.43;6.60;;;6.70;99.90;;;;;;6277685;28;20832;-68
2023/02/19 05:41:51;;;;;;;7.30;6.10;;;6.70;99.90;;;;;;6278103;28;20459;-69
2023/02/19 05:44:54;;;;;;;6.97;5.80;;;6.70;99.90;;;;;;6277405;28;20473;-69
2023/02/19 05:47:57;;;;;;;9.20;6.27;;;6.80;99.90;;;;;;6277700;28;20477;-69
2023/02/19 05:51:05;;;;;;;6.83;6.20;;;6.70;99.90;;;;;;6276969;28;20478;-68
2023/02/19 05:54:10;;;;;;;7.20;5.70;;;6.70;99.90;;;;;;6277581;28;20470;-68
2023/02/19 05:57:13;;;;;;;8.77;7.37;;;6.60;99.90;;;;;;6276990;28;20781;-69
2023/02/19 06:00:19;;;;;;;8.00;6.60;;;6.70;99.90;;;;;;6281201;28;20488;-68
2023/02/19 06:03:22;;;;;;;8.13;7.27;;;6.80;99.90;;;;;;6278223;28;20481;-68
2023/02/19 06:06:27;;;;;;;7.43;6.50;;;6.90;99.90;;;;;;6277028;28;20966;-69
2023/02/19 06:09:32;;;;;;;8.10;6.53;;;7.00;99.90;;;;;;6276615;28;20489;-68
2023/02/19 06:12:35;;;;;;;7.20;6.40;;;7.10;99.90;;;;;;6276895;28;20470;-68
2023/02/19 06:15:38;;;;;;;12.83;6.70;;;7.10;99.90;;;;;;6277139;28;20977;-69
2023/02/19 06:18:42;;;;;;;7.53;6.43;;;7.10;99.90;;;;;;6276576;28;20466;-68
2023/02/19 06:21:45;;;;;;;11.30;6.93;;;7.10;99.90;;;;;;6276004;28;20481;-69
2023/02/19 06:24:50;;;;;;;8.87;6.93;;;7.10;99.90;;;;;;6276310;28;20474;-69
2023/02/19 06:27:53;;;;;;;8.90;8.03;;;7.20;99.90;;;;;;6275930;28;20470;-69
2023/02/19 06:30:58;;;;;;;11.60;7.30;;;7.30;99.90;;;;;;6276477;28;20816;-69
2023/02/19 06:34:04;;;;;;;7.83;5.97;;;7.30;99.90;;;;;;6271064;28;20489;-68
2023/02/19 06:37:07;;;;;;;7.37;6.33;;;7.40;99.90;;;;;;6272469;28;20482;-69
2023/02/19 06:40:12;;;;;;;10.40;6.27;;;7.40;99.90;;;;;;6276101;28;20838;-68
2023/02/19 06:43:15;;;;;;;7.70;5.97;;;7.50;99.90;;;;;;6275683;28;20477;-68
2023/02/19 06:46:18;;;;;;;7.57;6.13;;;7.50;99.90;;;;;;6275753;28;20791;-68
2023/02/19 06:49:22;;;;;;;7.77;6.10;;;7.50;99.90;;;;;;6275403;28;20497;-69
2023/02/19 06:52:25;;;;;;;7.43;5.50;;;7.50;99.90;;;;;;6274820;28;20472;-69
2023/02/19 06:55:30;;;;;;;6.80;6.10;;;7.50;99.90;;;;;;6275936;28;20492;-68
2023/02/19 06:58:34;;;;;;;8.07;6.53;;;7.60;99.90;;;;;;6275249;28;20796;-68
2023/02/19 07:01:38;;;;;;;24.20;17.40;;;7.80;99.90;;;;;;6275384;28;20466;-68
2023/02/19 07:04:42;;;;;;;30.83;16.13;;;7.80;99.90;;;;;;6275477;28;20503;-68
2023/02/19 07:07:45;;;;;;;6.73;6.10;;;7.80;99.90;;;;;;6275213;28;20850;-68
2023/02/19 07:10:56;;;;;;;6.70;6.00;;;7.90;99.90;;;;;;6275425;28;20481;-68
2023/02/19 07:14:01;;;;;;;6.63;6.00;;;8.00;99.90;;;;;;6275298;28;20466;-70
2023/02/19 07:17:04;;;;;;;11.80;7.03;;;8.10;99.90;;;;;;6267612;28;20474;-68
2023/02/19 07:20:08;;;;;;;9.13;5.97;;;8.20;99.90;;;;;;6275033;28;20469;-68
2023/02/19 07:23:11;;;;;;;7.63;5.90;;;8.30;99.60;;;;;;6274951;28;20937;-68
2023/02/19 07:26:19;;;;;;;9.57;7.60;;;8.30;99.40;;;;;;6275143;28;20466;-68
2023/02/19 07:29:22;;;;;;;9.20;6.63;;;8.30;99.20;;;;;;6274911;28;20489;-68
2023/02/19 07:32:25;;;;;;;6.67;5.90;;;8.30;99.30;;;;;;6274727;28;20482;-68
2023/02/19 07:35:29;;;;;;;8.27;6.47;;;8.30;99.50;;;;;;6274580;28;20718;-68
2023/02/19 07:38:32;;;;;;;9.47;6.90;;;8.30;99.40;;;;;;6275078;28;20910;-68
2023/02/19 07:41:36;;;;;;;8.53;7.63;;;8.40;99.30;;;;;;6274626;28;20887;-68
2023/02/19 07:44:40;;;;;;;11.73;7.13;;;8.50;99.20;;;;;;6291940;28;20457;-68
2023/02/19 07:47:43;;;;;;;14.10;9.63;;;8.50;99.30;;;;;;6299650;28;20437;-68
2023/02/19 07:50:51;;;;;;;9.43;7.70;;;8.40;99.20;;;;;;6299147;28;20496;-68
2023/02/19 07:53:55;;;;;;;11.53;8.43;;;8.50;99.40;;;;;;6299816;28;20465;-69
2023/02/19 07:56:59;;;;;;;11.50;8.20;;;8.70;99.20;;;;;;6299745;28;20469;-68
2023/02/19 08:00:03;;;;;;;7.53;6.40;;;8.80;99.00;;;;;;6291727;28;20477;-69
2023/02/19 08:03:06;;;;;;;9.73;8.80;;;8.90;98.60;;;;;;6299961;28;20469;-68
2023/02/19 08:06:11;;;;;;;18.40;12.33;;;9.00;98.60;;;;;;6299219;28;20960;-68
2023/02/19 08:09:14;;;;;;;13.60;12.20;;;8.90;98.80;;;;;;6298828;28;20803;-68
2023/02/19 08:15:39;;;;;;;18.53;12.90;;;9.10;98.80;;;;;;6299803;28;20477;-68
2023/02/19 08:18:43;;;;;;;14.67;12.13;;;9.20;98.40;;;;;;6299841;28;20473;-68
2023/02/19 08:21:47;;;;;;;14.93;12.60;;;9.30;98.10;;;;;;6299368;28;20483;-69
2023/02/19 08:24:50;;;;;;;14.70;11.57;;;9.30;98.30;;;;;;6311067;28;20846;-68
2023/02/19 08:27:54;;;;;;;13.87;12.23;;;9.40;97.80;;;;;;6288736;28;20477;-68
2023/02/19 08:31:00;;;;;;;16.77;12.80;;;9.40;97.60;;;;;;6275065;28;20466;-68
2023/02/19 08:34:05;;;;;;;14.80;13.10;;;9.50;97.60;;;;;;6274560;28;20481;-68
2023/02/19 08:37:08;;;;;;;16.30;14.60;;;9.60;97.00;;;;;;6274450;28;20462;-69
2023/02/19 08:40:12;;;;;;;18.13;16.20;;;9.60;97.30;;;;;;6274219;28;20470;-70
2023/02/19 08:43:18;;;;;;;18.37;16.50;;;9.80;97.20;;;;;;6274048;28;20977;-70
2023/02/19 08:46:22;;;;;;;19.50;15.97;;;9.80;96.80;;;;;;6274512;28;20478;-70
2023/02/19 08:49:26;;;;;;;20.10;16.50;;;10.00;96.20;;;;;;6273932;28;20489;-69
2023/02/19 08:52:29;;;;;;;17.87;15.97;;;10.20;95.50;;;;;;6274207;28;20881;-69
2023/02/19 08:55:33;;;;;;;18.57;16.60;;;10.50;95.50;;;;;;6274164;28;20472;-69
2023/02/19 08:58:38;;;;;;;18.90;15.77;;;11.10;95.10;;;;;;6273527;28;20981;-69
2023/02/19 09:01:41;;;;;;;18.17;16.30;;;11.80;93.70;;;;;;6274271;28;20485;-69
2023/02/19 09:04:45;;;;;;;16.30;14.50;;;12.50;92.20;;;;;;6287597;28;20976;-69
2023/02/19 09:07:48;;;;;;;15.50;12.30;;;13.30;90.20;;;;;;6298679;28;20815;-69
2023/02/19 09:10:58;;;;;;;14.90;13.43;;;14.20;88.40;;;;;;6298259;28;20484;-69
2023/02/19 09:14:06;;;;;;;12.70;11.50;;;16.60;82.50;;;;;;6290433;28;20461;-69
2023/02/19 09:17:09;;;;;;;14.20;12.70;;;20.30;70.70;;;;;;6303332;28;20477;-69
2023/02/19 09:20:13;;;;;;;17.23;15.33;;;23.60;49.70;;;;;;6302711;28;20268;-69
2023/02/19 09:23:16;;;;;;;17.03;15.67;;;26.80;40.70;;;;;;6302729;28;20652;-69
2023/02/19 09:26:19;;;;;;;18.17;16.47;;;29.40;33.00;;;;;;6297986;28;20524;-69
2023/02/19 09:29:25;;;;;;;18.13;16.55;;;31.30;28.30;;;;;;6278611;28;20238;-69
2023/02/19 09:32:31;;;;;;;17.70;16.25;;;32.20;26.10;;;;;;6277436;28;20231;-70
2023/02/19 09:35:34;;;;;;;19.50;17.52;;;33.60;23.90;;;;;;6278203;28;20584;-69
2023/02/19 09:38:38;;;;;;;21.65;19.80;;;34.10;22.80;;;;;;6277957;28;20231;-70
2023/02/19 09:41:45;;;;;;;20.10;18.40;;;32.00;22.80;;;;;;6279544;28;20603;-69
2023/02/19 09:44:52;;;;;;;21.23;19.33;;;29.00;25.20;;;;;;6303360;28;20194;-70
2023/02/19 09:47:57;;;;;;;21.10;19.00;;;26.80;27.40;;;;;;6306020;28;20226;-68
2023/02/19 09:51:02;;;;;;;19.63;17.83;;;26.40;28.70;;;;;;6266612;28;20220;-67
2023/02/19 09:54:12;;;;;;;19.87;17.97;;;27.50;28.10;;;;;;6299946;28;20303;-69
2023/02/19 09:57:19;;;;;;;18.37;16.83;;;28.60;26.60;;;;;;6299570;28;20222;-69
2023/02/19 10:00:27;;;;;;;18.85;17.35;;;30.00;26.10;;;;;;6305725;28;20233;-67
2023/02/19 10:03:34;;;;;;;18.52;16.95;;;31.90;24.10;;;;;;6301399;28;20230;-68
2023/02/19 10:06:38;;;;;;;18.65;17.15;;;34.20;22.40;;;;;;6298468;28;20224;-68
2023/02/19 10:09:45;;;;;;;17.15;15.82;;;36.30;20.90;;;;;;6300915;28;20218;-68
2023/02/19 10:12:50;;;;;;;18.65;17.25;;;38.20;19.20;;;;;;6302957;28;20249;-68
2023/02/19 10:15:57;;;;;;;19.20;17.80;;;39.10;17.60;;;;;;6301612;28;20225;-68
2023/02/19 10:19:01;;;;;;;19.63;17.88;;;39.80;16.90;;;;;;6301802;28;20236;-68
2023/02/19 10:22:05;;;;;;;16.67;15.45;;;39.20;16.60;;;;;;6301619;28;20235;-68
2023/02/19 10:25:14;;;;;;;16.45;15.35;;;40.60;16.00;;;;;;6279737;28;20228;-68
2023/02/19 10:28:21;;;;;;;16.75;15.60;;;40.00;16.00;;;;;;6275579;28;20246;-67
2023/02/19 10:31:26;;;;;;;17.55;16.25;;;40.50;15.40;;;;;;6280443;28;20227;-68
2023/02/19 10:34:29;;;;;;;18.75;17.23;;;39.40;15.70;;;;;;6300279;28;20314;-67
2023/02/19 10:37:34;;;;;;;17.48;16.17;;;37.80;16.50;;;;;;6300191;28;20231;-69
2023/02/19 10:40:45;;;;;;;18.90;17.35;;;38.50;16.50;;;;;;6293776;28;20216;-67
2023/02/19 10:43:54;;;;;;;18.10;16.67;;;40.40;15.60;;;;;;6295400;28;20226;-68
2023/02/19 10:47:00;;;;;;;16.45;15.25;;;42.00;14.70;;;;;;6296081;28;20222;-67
2023/02/19 10:50:05;;;;;;;17.40;16.20;;;43.10;14.10;;;;;;6287125;28;20681;-67
2023/02/19 10:53:22;;;;;;;16.25;15.15;;;44.40;13.50;;;;;;6299581;28;20235;-68
2023/02/19 10:56:27;;;;;;;15.10;13.95;;;45.00;12.40;;;;;;6299792;28;20594;-68
2023/02/19 10:59:30;;;;;;;16.60;15.50;;;44.80;12.60;;;;;;6295203;28;20230;-68
2023/02/19 11:02:37;;;;;;;16.67;15.48;;;44.40;12.60;;;;;;6300024;28;20521;-67
2023/02/19 11:05:54;;;;;;;18.45;17.08;;;43.70;12.70;;;;;;6300681;28;20617;-68
2023/02/19 11:09:00;;;;;;;16.77;15.48;;;41.70;13.70;;;;;;6291594;28;20227;-67
2023/02/19 11:12:04;;;;;;;16.38;15.18;;;41.80;14.10;;;;;;6296914;28;20265;-68
2023/02/19 11:15:22;;;;;;;16.95;15.65;;;42.50;13.50;;;;;;6303331;28;20222;-68
2023/02/19 11:18:29;;;;;;;16.52;15.25;;;41.70;13.80;;;;;;6302087;28;20228;-72
2023/02/19 11:21:33;;;;;;;16.40;15.20;;;42.90;13.90;;;;;;6299428;28;20230;-69
2023/02/19 11:24:39;;;;;;;14.68;13.57;;;44.00;13.20;;;;;;6299588;28;20228;-70
2023/02/19 11:27:55;;;;;;;14.02;13.02;;;44.30;12.50;;;;;;6296526;28;20553;-69
2023/02/19 11:31:19;;;;;;;14.30;13.23;;;43.80;12.70;;;;;;6295318;28;20242;-70
2023/02/19 11:34:29;;;;;;;11.85;10.95;;;44.60;12.00;;;;;;6298032;28;20646;-71
2023/02/19 11:37:33;;;;;;;12.55;11.35;;;40.70;13.20;;;;;;6297747;28;20225;-69
2023/02/19 11:40:44;;;;;;;10.88;9.93;;;39.40;14.20;;;;;;6292961;28;20217;-70
2023/02/19 11:43:59;;;;;;;8.80;8.15;;;40.50;13.40;;;;;;6313141;28;20231;-68
2023/02/19 11:47:31;;;;;;;6.38;5.80;;;37.90;14.30;;;;;;6311993;28;20288;-68
2023/02/19 11:50:52;;;;;;;2.53;0.80;;;34.70;16.30;;;;;;6306456;28;20226;-67
2023/02/19 11:54:07;;;;;;;2.20;0.60;;;34.40;15.80;;;;;;6316595;28;20610;-67
2023/02/19 11:57:23;;;;;;;1.88;0.45;;;36.30;14.10;;;;;;6315367;28;20550;-67
2023/02/19 12:00:29;;;;;;;2.53;0.70;;;35.30;14.70;;;;;;6275280;28;20241;-70
2023/02/19 12:03:55;;;;;;;1.33;0.50;;;37.60;14.50;;;;;;6297139;28;20242;-68
2023/02/19 12:07:14;;;;;;;1.95;1.85;;;39.30;13.00;;;;;;6310598;28;20240;-69
2023/02/19 12:10:24;;;;;;;5.30;4.90;;;40.30;12.50;;;;;;6306208;28;20249;-69
2023/02/19 12:13:37;;;;;;;5.78;5.32;;;41.20;11.70;;;;;;6311146;28;20553;-69
2023/02/19 12:16:49;;;;;;;1.90;1.70;;;41.90;11.30;;;;;;6310072;28;20253;-69
2023/02/19 12:20:05;;;;;;;2.08;1.10;;;41.70;11.10;;;;;;6313393;28;20239;-69
2023/02/19 12:23:45;;;;;;;1.17;0.50;;;42.70;11.00;;;;;;6306007;28;20233;-69
2023/02/19 12:27:07;;;;;;;1.75;0.40;;;42.30;10.60;;;;;;6288969;28;20246;-69
2023/02/19 12:30:34;;;;;;;4.05;0.65;;;43.40;10.20;;;;;;6284447;28;20804;-69
2023/02/19 12:34:03;;;;;;;3.15;0.38;;;44.00;9.80;;;;;;6291470;28;20254;-69
2023/02/19 12:37:20;;;;;;;2.15;0.40;;;42.80;9.60;;;;;;6300032;28;20228;-68
2023/02/19 12:40:38;;;;;;;4.20;0.40;;;39.50;10.60;;;;;;6301415;28;20243;-68
2023/02/19 12:43:51;;;;;;;1.50;0.28;;;38.20;11.40;;;;;;6275928;28;20230;-68
2023/02/19 12:47:00;;;;;;;6.10;1.10;;;34.30;13.30;;;;;;6309876;28;20329;-68
2023/02/19 12:50:18;;;;;;;2.83;0.93;;;32.00;15.00;;;;;;6299245;28;20261;-68
2023/02/19 12:53:35;;;;;;;1.27;0.73;;;30.80;17.10;;;;;;6310895;28;20234;-68
2023/02/19 12:56:48;;;;;;;3.00;2.70;;;31.70;16.70;;;;;;6311313;28;20210;-69
2023/02/19 12:59:58;;;;;;;2.88;1.00;;;31.80;17.60;;;;;;6284416;28;20251;-69
2023/02/19 13:03:07;;;;;;;1.00;0.57;;;34.30;16.00;;;;;;6280442;28;20223;-69
2023/02/19 13:06:19;;;;;;;1.52;0.75;;;34.70;15.70;;;;;;6281651;28;20237;-68
2023/02/19 13:09:28;;;;;;;4.43;3.00;;;35.90;15.30;;;;;;6280703;28;20238;-68
2023/02/19 13:12:37;;;;;;;0.75;0.60;;;36.30;14.90;;;;;;6303593;28;20309;-69
2023/02/19 13:15:45;;;;;;;2.35;0.60;;;36.90;15.60;;;;;;6302600;28;20448;-67
2023/02/19 13:18:52;;;;;;;1.77;0.40;;;36.30;15.20;;;;;;6303142;28;20242;-66
2023/02/19 13:25:39;;;;;;;2.38;0.70;;;34.70;16.80;;;;;;6297810;28;20282;-67
2023/02/19 13:29:00;;;;;;;1.25;0.40;;;35.00;16.60;;;;;;6300291;28;20227;-67
2023/02/19 13:32:30;;;;;;;0.70;0.40;;;35.10;16.40;;;;;;6280708;28;20223;-69
2023/02/19 13:36:04;;;;;;;1.23;0.30;;;34.70;16.20;;;;;;6297699;28;20233;-70
2023/02/19 13:39:13;;;;;;;1.25;0.60;;;34.90;16.20;;;;;;6303495;28;20589;-71
2023/02/19 13:42:58;;;;;;;2.15;0.30;;;35.80;15.80;;;;;;6289014;28;20223;-70
2023/02/19 13:46:07;;;;;;;0.80;0.38;;;35.20;15.80;;;;;;6279426;28;20223;-72
2023/02/19 13:49:40;;;;;;;0.95;0.30;;;35.10;15.90;;;;;;6301771;28;20705;-69
2023/02/19 13:52:44;;;;;;;1.67;0.38;;;35.40;15.80;;;;;;6292497;28;20255;-73
2023/02/19 13:55:53;;;;;;;1.70;0.50;;;35.10;16.00;;;;;;6295599;28;20272;-69
2023/02/19 13:59:00;;;;;;;1.00;0.35;;;34.40;16.40;;;;;;6308605;28;20556;-70
2023/02/19 14:02:15;;;;;;;3.90;0.63;;;34.40;16.50;;;;;;6294313;28;20221;-69
2023/02/19 14:05:59;;;;;;;1.10;0.50;;;32.90;17.30;;;;;;6308657;28;20226;-69
2023/02/19 14:09:02;;;;;;;2.50;0.50;;;31.10;19.00;;;;;;6281852;28;20231;-69
2023/02/19 14:12:19;;;;;;;1.00;0.60;;;29.60;20.20;;;;;;6296536;28;20230;-69
2023/02/19 14:15:43;;;;;;;0.70;0.40;;;28.00;21.60;;;;;;6306040;28;20227;-69
2023/02/19 14:18:51;;;;;;;2.40;0.67;;;26.50;23.10;;;;;;6300440;28;20308;-69
2023/02/19 14:21:55;;;;;;;1.07;0.43;;;24.60;25.10;;;;;;6290359;28;20222;-69
2023/02/19 14:25:00;;;;;;;2.03;1.00;;;22.90;26.60;;;;;;6294517;28;20215;-68
2023/02/19 14:28:14;;;;;;;0.70;0.33;;;21.80;28.00;;;;;;6270826;28;20235;-66
2023/02/19 14:31:29;;;;;;;1.60;0.50;;;20.60;29.40;;;;;;6296474;28;20596;-68
2023/02/19 14:34:36;;;;;;;3.07;0.50;;;19.60;30.60;;;;;;6303272;28;20231;-67
2023/02/19 14:37:40;;;;;;;2.10;0.30;;;19.10;31.50;;;;;;6303168;28;20226;-69
2023/02/19 14:40:46;;;;;;;1.13;0.60;;;18.50;32.90;;;;;;6302512;28;20230;-68
2023/02/19 14:43:52;;;;;;;1.10;0.60;;;18.00;34.00;;;;;;6254993;28;20321;-67
2023/02/19 14:47:03;;;;;;;1.90;0.57;;;17.80;34.00;;;;;;6252859;28;20278;-68
2023/02/19 14:50:13;;;;;;;1.83;0.40;;;17.50;34.60;;;;;;6252539;28;20248;-67
2023/02/19 14:53:20;;;;;;;0.50;0.30;;;17.30;35.30;;;;;;6261011;28;20220;-68
2023/02/19 14:56:28;;;;;;;2.30;0.40;;;17.00;36.30;;;;;;6292174;28;20469;-68
2023/02/19 14:59:32;;;;;;;2.90;0.40;;;16.80;36.60;;;;;;6292861;28;20513;-70
2023/02/19 15:02:43;;;;;;;2.10;0.30;;;16.70;37.20;;;;;;6294490;28;20434;-69
2023/02/19 15:05:56;;;;;;;0.87;0.30;;;16.40;37.80;;;;;;6303869;28;20545;-69
2023/02/19 15:09:06;;;;;;;7.37;0.70;;;16.30;38.20;;;;;;6307267;28;20457;-69
2023/02/19 15:12:18;;;;;;;0.60;0.30;;;16.10;38.50;;;;;;6308377;28;20561;-69
2023/02/19 15:15:27;;;;;;;0.60;0.40;;;16.10;39.10;;;;;;6309556;28;20474;-69
2023/02/19 15:18:35;;;;;;;1.03;0.50;;;16.00;39.10;;;;;;6308974;28;20469;-69
2023/02/19 15:21:45;;;;;;;0.70;0.60;;;15.90;39.10;;;;;;6308804;28;20469;-69
2023/02/19 15:24:50;;;;;;;0.50;0.33;;;15.90;39.30;;;;;;6306896;28;20552;-69
2023/02/19 15:27:55;;;;;;;0.70;0.40;;;15.80;39.50;;;;;;6290203;28;20467;-69
2023/02/19 15:31:13;;;;;;;0.50;0.40;;;15.70;39.80;;;;;;6266617;28;20475;-68
2023/02/19 15:34:22;;;;;;;0.77;0.73;;;15.60;39.70;;;;;;6283228;28;20534;-69
2023/02/19 15:37:37;;;;;;;1.37;0.60;;;15.60;39.80;;;;;;6282288;28;20475;-69
2023/02/19 15:40:45;;;;;;;1.77;0.60;;;15.50;39.70;;;;;;6281266;28;20481;-69
2023/02/19 15:43:55;;;;;;;1.20;0.80;;;15.50;39.70;;;;;;6281243;28;20536;-68
2023/02/19 15:47:06;;;;;;;1.60;0.90;;;15.40;39.70;;;;;;6287676;28;20481;-70
2023/02/19 15:50:16;;;;;;;0.70;0.57;;;15.30;39.90;;;;;;6282091;28;20486;-68
2023/02/19 15:53:25;;;;;;;0.97;0.60;;;15.20;40.10;;;;;;6271390;28;20544;-67
2023/02/19 15:56:32;;;;;;;0.50;0.40;;;15.10;40.20;;;;;;6254248;28;20471;-67
2023/02/19 15:59:41;;;;;;;0.63;0.40;;;15.00;40.10;;;;;;6267532;28;20468;-68
2023/02/19 16:02:47;;;;;;;0.50;0.40;;;15.00;40.40;;;;;;6280109;28;20438;-69
2023/02/19 16:06:00;;;;;;;0.80;0.43;;;14.90;40.30;;;;;;6252223;28;20556;-69
2023/02/19 16:09:18;;;;;;;0.60;0.37;;;14.70;40.50;;;;;;6279687;28;20539;-69
2023/02/19 16:12:27;;;;;;;0.70;0.60;;;14.60;40.60;;;;;;6279340;28;20478;-67
2023/02/19 16:15:34;;;;;;;0.70;0.67;;;14.60;40.60;;;;;;6277808;28;20506;-68
2023/02/19 16:18:38;;;;;;;0.77;0.70;;;14.50;40.50;;;;;;6275675;28;20479;-68
2023/02/19 16:21:44;;;;;;;0.50;0.40;;;14.50;41.00;;;;;;6282109;28;20465;-67
2023/02/19 16:24:54;;;;;;;0.70;0.50;;;14.40;41.00;;;;;;6305198;28;20472;-68
2023/02/19 16:28:11;;;;;;;0.70;0.50;;;14.30;41.00;;;;;;6281890;28;20470;-68
2023/02/19 16:31:15;;;;;;;0.60;0.57;;;14.20;40.90;;;;;;6283138;28;20495;-68
2023/02/19 16:34:34;;;;;;;0.60;0.57;;;14.00;41.50;;;;;;6284591;28;20470;-68
2023/02/19 16:37:43;;;;;;;0.73;0.60;;;13.90;41.70;;;;;;6284350;28;20475;-67
2023/02/19 16:41:11;;;;;;;0.60;0.40;;;13.80;41.80;;;;;;6276760;28;20492;-68
2023/02/19 16:44:34;;;;;;;0.70;0.70;;;13.80;42.70;;;;;;6299176;28;20496;-66
2023/02/19 16:47:47;;;;;;;1.33;0.60;;;13.70;42.10;;;;;;6288210;28;20462;-70